Ridley Park, Pennsylvania
Current Conditions -  °F | °C
As of 11:54 PM on Tuesday 25 Nov 2014 (Local Time) from KPHL Reporting Station
Overcast Overcast  
Wind Chill: 47°   Ceiling: 15000
Heat Index: 49°   Visibility: 10mi
Dew Point: 33°   Wind: 5mph
Humidity: 54%   Direction: 360°N
Pressure: 30.17"   Gusts: NA
Location:  39.88°N, 75.32°W
Report Text: KPHL 260454Z 36004KT 10SM SCT110 BKN150 OVC200 09/01 A3017 RMK AO2 SLP216 T00940006 402000083 $
Loading
Personal Weather Stations






























Interactive Weather Map New forecast layout! Learn more

10-Day Weather Forecast

Advertisements
Track Severe Weather on mobile